Time;durP1;ratioP1;P1;durP2;ratioP2;P2;SDS_P1;SDS_P2;PMS_P1;PMS_P2;Temp;Humidity;BMP_temperature;BMP_pressure;BME280_temperature;BME280_humidity;BME280_pressure;Samples;Min_cycle;Max_cycle;Signal;HPM_P1;HPM_P2
2024/01/03 00:00:40;;;;;;;0.35;0.35;;;10.50;99.90;;;;;;4976250;28;20869;-73
2024/01/03 00:03:10;;;;;;;1.38;0.60;;;10.50;99.90;;;;;;4983725;28;20700;-73
2024/01/03 00:05:41;;;;;;;1.25;0.40;;;10.50;99.90;;;;;;4977241;28;20208;-73
2024/01/03 00:08:12;;;;;;;2.05;0.40;;;10.50;99.90;;;;;;4983847;28;20200;-73
2024/01/03 00:10:41;;;;;;;0.40;0.40;;;10.50;99.90;;;;;;4977103;28;20213;-73
2024/01/03 00:13:45;;;;;;;0.93;0.38;;;10.50;99.90;;;;;;4980609;28;20248;-73
2024/01/03 00:16:19;;;;;;;1.38;0.35;;;10.50;99.90;;;;;;4968083;28;20708;-73
2024/01/03 00:18:51;;;;;;;1.02;0.47;;;10.50;99.90;;;;;;4972441;28;20232;-73
2024/01/03 00:21:23;;;;;;;1.27;0.50;;;10.50;99.90;;;;;;4975613;28;20315;-73
2024/01/03 00:23:51;;;;;;;1.35;0.30;;;10.50;99.90;;;;;;4975038;28;20690;-73
2024/01/03 00:26:19;;;;;;;0.80;0.32;;;10.50;99.90;;;;;;4972875;28;20201;-73
2024/01/03 00:28:47;;;;;;;1.60;0.43;;;10.50;99.90;;;;;;4971979;28;20240;-73
2024/01/03 00:31:21;;;;;;;2.67;0.73;;;10.50;99.90;;;;;;4972589;28;20228;-73
2024/01/03 00:33:50;;;;;;;2.88;0.45;;;10.60;99.90;;;;;;4972489;28;20263;-73
2024/01/03 00:36:19;;;;;;;3.92;0.40;;;10.60;99.90;;;;;;4972861;28;20228;-73
2024/01/03 00:38:47;;;;;;;1.77;0.40;;;10.60;99.90;;;;;;4975712;28;20232;-73
2024/01/03 00:41:14;;;;;;;1.83;0.50;;;10.60;99.90;;;;;;4984475;28;20240;-73
2024/01/03 00:43:42;;;;;;;1.00;0.50;;;10.60;99.90;;;;;;4983556;28;20259;-73
2024/01/03 00:46:10;;;;;;;2.13;0.50;;;10.60;99.90;;;;;;4987431;28;20203;-73
2024/01/03 00:48:38;;;;;;;3.40;0.60;;;10.60;99.90;;;;;;4987177;28;20294;-73
2024/01/03 00:51:08;;;;;;;3.10;0.60;;;10.70;99.90;;;;;;4984929;28;20220;-73
2024/01/03 00:53:35;;;;;;;3.10;0.75;;;10.60;99.90;;;;;;4976008;28;20275;-73
2024/01/03 00:56:04;;;;;;;4.00;0.60;;;10.70;99.90;;;;;;4984007;28;20886;-73
2024/01/03 00:58:33;;;;;;;2.53;0.63;;;10.60;99.90;;;;;;4975658;28;20246;-73
2024/01/03 01:01:01;;;;;;;4.55;0.40;;;10.60;99.90;;;;;;4975770;28;20217;-73
2024/01/03 01:03:29;;;;;;;3.47;0.60;;;10.60;99.90;;;;;;4975857;28;20193;-73
2024/01/03 01:05:56;;;;;;;3.20;0.50;;;10.50;99.90;;;;;;4984828;28;20212;-73
2024/01/03 01:08:26;;;;;;;1.48;0.57;;;10.50;99.90;;;;;;4994578;28;20259;-73
2024/01/03 01:10:54;;;;;;;2.08;0.68;;;10.40;99.90;;;;;;4978520;28;20232;-73
2024/01/03 01:13:21;;;;;;;4.70;0.63;;;10.30;99.90;;;;;;4987702;28;20584;-73
2024/01/03 01:15:49;;;;;;;3.25;0.30;;;10.30;99.90;;;;;;4978847;28;20251;-73
2024/01/03 01:18:18;;;;;;;2.75;0.43;;;10.20;99.90;;;;;;4983472;28;20220;-73
2024/01/03 01:20:46;;;;;;;6.35;0.75;;;10.20;99.90;;;;;;4983025;28;20204;-73
2024/01/03 01:23:14;;;;;;;6.35;0.70;;;10.20;99.90;;;;;;4983581;28;20204;-73
2024/01/03 01:25:43;;;;;;;1.65;0.73;;;10.10;99.90;;;;;;4975417;28;20232;-73
2024/01/03 01:28:11;;;;;;;2.17;0.40;;;10.20;99.90;;;;;;4985724;28;20239;-73
2024/01/03 01:30:39;;;;;;;1.15;0.43;;;10.20;99.90;;;;;;4978159;28;20228;-73
2024/01/03 01:33:07;;;;;;;1.63;0.40;;;10.10;99.90;;;;;;4975249;28;20205;-72
2024/01/03 01:35:35;;;;;;;3.30;0.40;;;10.20;99.90;;;;;;4983532;28;20275;-73
2024/01/03 01:38:06;;;;;;;1.35;0.32;;;10.10;99.90;;;;;;4975039;28;20208;-73
2024/01/03 01:40:34;;;;;;;0.98;0.43;;;10.10;99.90;;;;;;4974820;28;20730;-72
2024/01/03 01:43:04;;;;;;;1.70;0.30;;;10.20;99.90;;;;;;4974915;28;20213;-73
2024/01/03 01:45:32;;;;;;;1.88;0.50;;;10.10;99.90;;;;;;4974884;28;20263;-73
2024/01/03 01:47:59;;;;;;;4.03;0.52;;;10.10;99.90;;;;;;4982495;28;20240;-73
2024/01/03 01:50:27;;;;;;;3.85;0.40;;;10.10;99.90;;;;;;4978897;28;20235;-73
2024/01/03 01:52:58;;;;;;;1.35;0.30;;;10.10;99.90;;;;;;4985685;28;20209;-73
2024/01/03 01:55:26;;;;;;;1.65;0.52;;;10.10;99.90;;;;;;4975190;28;20205;-73
2024/01/03 01:57:53;;;;;;;1.38;0.52;;;10.10;99.90;;;;;;4974661;28;20208;-73
2024/01/03 02:00:23;;;;;;;1.98;0.50;;;10.10;99.90;;;;;;4978778;28;20236;-73
2024/01/03 02:02:50;;;;;;;1.80;0.20;;;10.10;99.90;;;;;;4978057;28;20232;-73
2024/01/03 02:05:19;;;;;;;2.03;0.47;;;10.10;99.90;;;;;;4966940;28;20200;-73
2024/01/03 02:07:47;;;;;;;1.92;0.40;;;10.10;99.90;;;;;;4970910;28;20659;-73
2024/01/03 02:10:15;;;;;;;3.83;0.40;;;10.10;99.90;;;;;;4974243;28;20201;-73
2024/01/03 02:12:43;;;;;;;0.80;0.30;;;10.10;99.90;;;;;;4974338;28;20308;-73
2024/01/03 02:15:11;;;;;;;2.90;0.32;;;10.00;99.90;;;;;;4974332;28;20240;-73
2024/01/03 02:17:40;;;;;;;2.15;0.30;;;10.00;99.90;;;;;;4974247;28;20204;-73
2024/01/03 02:20:09;;;;;;;2.58;0.50;;;9.90;99.90;;;;;;4969639;28;20258;-73
2024/01/03 02:22:38;;;;;;;1.85;0.47;;;9.90;99.90;;;;;;4982161;28;20781;-73
2024/01/03 02:25:10;;;;;;;2.88;1.00;;;9.90;99.90;;;;;;4974160;28;20211;-72
2024/01/03 02:27:39;;;;;;;4.80;0.52;;;9.90;99.90;;;;;;4973903;28;20192;-72
2024/01/03 02:30:08;;;;;;;4.15;0.63;;;9.90;99.90;;;;;;4990274;28;20262;-73
2024/01/03 02:32:37;;;;;;;2.88;0.77;;;9.80;99.90;;;;;;4974295;28;20259;-73
2024/01/03 02:35:06;;;;;;;6.03;1.00;;;9.80;99.90;;;;;;4982230;28;20204;-73
2024/01/03 02:37:34;;;;;;;4.10;0.95;;;9.80;99.90;;;;;;4982038;28;20255;-73
2024/01/03 02:40:04;;;;;;;3.05;0.73;;;9.90;99.90;;;;;;4973760;28;20204;-73
2024/01/03 02:42:31;;;;;;;4.70;0.90;;;9.90;99.90;;;;;;4981662;28;20225;-73
2024/01/03 02:44:59;;;;;;;6.68;0.90;;;10.00;99.90;;;;;;4974408;28;20231;-73
2024/01/03 02:47:27;;;;;;;7.80;1.15;;;10.10;99.90;;;;;;4973457;28;20211;-73
2024/01/03 02:49:58;;;;;;;6.65;0.80;;;10.10;99.90;;;;;;4973859;28;20305;-73
2024/01/03 02:52:26;;;;;;;8.90;1.20;;;10.00;99.90;;;;;;4993221;28;20242;-73
2024/01/03 02:54:54;;;;;;;7.93;1.08;;;10.10;99.90;;;;;;4985373;28;20215;-73
2024/01/03 02:57:24;;;;;;;9.85;1.02;;;10.10;99.90;;;;;;4981452;28;20224;-73
2024/01/03 02:59:51;;;;;;;5.40;1.13;;;10.10;99.90;;;;;;4989368;28;20317;-73
2024/01/03 03:02:19;;;;;;;8.20;1.05;;;10.10;99.90;;;;;;4976828;28;20286;-73
2024/01/03 03:04:47;;;;;;;7.65;1.63;;;10.10;99.90;;;;;;4985088;28;20199;-73
2024/01/03 03:07:15;;;;;;;5.28;1.08;;;10.10;99.90;;;;;;4982272;28;20292;-73
2024/01/03 03:09:43;;;;;;;7.35;1.05;;;10.10;99.90;;;;;;4973239;28;20663;-73
2024/01/03 03:12:11;;;;;;;6.30;0.93;;;10.20;99.90;;;;;;4973637;28;20275;-73
2024/01/03 03:14:40;;;;;;;7.57;1.10;;;10.20;99.90;;;;;;4981299;28;20221;-73
2024/01/03 03:17:08;;;;;;;6.50;1.65;;;10.20;99.90;;;;;;4973667;28;20197;-73
2024/01/03 03:19:35;;;;;;;5.53;0.82;;;10.20;99.90;;;;;;4973106;28;20197;-73
2024/01/03 03:22:04;;;;;;;4.85;0.60;;;10.10;99.90;;;;;;4981284;28;20311;-73
2024/01/03 03:24:32;;;;;;;3.63;0.65;;;10.10;99.90;;;;;;4973107;28;20726;-73
2024/01/03 03:26:59;;;;;;;4.75;0.75;;;10.10;99.90;;;;;;4973453;28;20208;-73
2024/01/03 03:29:27;;;;;;;8.68;0.90;;;10.00;99.90;;;;;;4973184;28;20189;-73
2024/01/03 03:31:57;;;;;;;4.68;1.00;;;10.00;99.90;;;;;;4973311;28;20282;-73
2024/01/03 03:34:25;;;;;;;2.67;0.60;;;10.00;99.90;;;;;;4965393;28;20212;-73
2024/01/03 03:36:52;;;;;;;5.53;1.05;;;10.00;99.90;;;;;;4973473;28;20271;-73
2024/01/03 03:39:20;;;;;;;4.20;0.90;;;10.00;99.90;;;;;;4981060;28;20255;-73
2024/01/03 03:41:48;;;;;;;1.63;0.50;;;10.00;99.90;;;;;;4973500;28;20217;-73
2024/01/03 03:44:16;;;;;;;4.30;0.60;;;10.00;99.90;;;;;;4972771;28;20686;-72
2024/01/03 03:46:44;;;;;;;3.75;0.63;;;10.00;99.90;;;;;;4973367;28;20205;-73
2024/01/03 03:49:13;;;;;;;3.67;0.43;;;10.00;99.90;;;;;;4988691;28;20629;-73
2024/01/03 03:51:41;;;;;;;1.95;0.50;;;10.00;99.90;;;;;;4981147;28;20240;-73
2024/01/03 03:54:09;;;;;;;3.63;0.63;;;10.00;99.90;;;;;;4973151;28;20287;-73
2024/01/03 03:56:37;;;;;;;2.85;0.52;;;10.00;99.90;;;;;;4972907;28;20642;-73
2024/01/03 03:59:07;;;;;;;2.85;0.68;;;10.00;99.90;;;;;;4981506;28;20212;-73
2024/01/03 04:01:34;;;;;;;3.42;1.05;;;10.00;99.90;;;;;;4979479;28;20726;-72
2024/01/03 04:04:02;;;;;;;6.32;0.88;;;10.00;99.90;;;;;;4980884;28;20282;-73
2024/01/03 04:06:32;;;;;;;5.90;1.15;;;10.00;99.90;;;;;;4977408;28;20299;-73
2024/01/03 04:09:00;;;;;;;5.38;0.85;;;10.00;99.90;;;;;;4974710;28;20220;-73
2024/01/03 04:11:28;;;;;;;9.13;1.08;;;10.00;99.90;;;;;;4973068;28;20229;-73
2024/01/03 04:13:56;;;;;;;2.35;0.70;;;10.00;99.90;;;;;;4992131;28;20212;-73
2024/01/03 04:16:24;;;;;;;7.13;0.93;;;10.00;99.90;;;;;;4976560;28;20278;-73
2024/01/03 04:18:51;;;;;;;5.07;1.35;;;10.00;99.90;;;;;;4983240;28;20250;-73
2024/01/03 04:21:19;;;;;;;11.57;1.80;;;10.00;99.90;;;;;;4981515;28;20581;-73
2024/01/03 04:23:49;;;;;;;5.80;1.02;;;10.00;99.90;;;;;;4976429;28;20252;-73
2024/01/03 04:26:17;;;;;;;8.90;1.40;;;10.00;99.90;;;;;;4976804;28;20197;-73
2024/01/03 04:28:45;;;;;;;5.28;1.48;;;10.10;99.90;;;;;;4976221;28;20212;-73
2024/01/03 04:31:13;;;;;;;9.23;1.50;;;10.10;99.90;;;;;;4984424;28;20232;-73
2024/01/03 04:33:40;;;;;;;11.18;1.75;;;10.10;99.90;;;;;;4975929;28;20801;-73
2024/01/03 04:36:10;;;;;;;10.63;1.80;;;10.10;99.90;;;;;;4976469;28;20255;-73
2024/01/03 04:38:38;;;;;;;9.68;2.03;;;10.10;99.90;;;;;;4980940;28;20295;-73
2024/01/03 04:41:08;;;;;;;14.27;1.40;;;10.10;99.90;;;;;;4979176;28;20235;-73
2024/01/03 04:43:36;;;;;;;8.15;1.50;;;10.20;99.90;;;;;;4980857;28;20263;-73
2024/01/03 04:46:04;;;;;;;8.75;1.58;;;10.10;99.90;;;;;;4979360;28;20205;-73
2024/01/03 04:48:32;;;;;;;14.25;1.60;;;10.10;99.90;;;;;;4975608;28;20201;-73
2024/01/03 04:51:00;;;;;;;15.32;1.95;;;10.20;99.90;;;;;;4976202;28;20256;-73
2024/01/03 04:53:28;;;;;;;8.43;1.35;;;10.20;99.90;;;;;;4976048;28;20224;-73
2024/01/03 04:55:56;;;;;;;11.20;1.55;;;10.20;99.90;;;;;;4984292;28;20215;-73
2024/01/03 04:58:25;;;;;;;7.05;1.38;;;10.10;99.90;;;;;;4986104;28;20728;-73
2024/01/03 05:00:53;;;;;;;13.90;1.80;;;10.10;99.90;;;;;;4980712;28;20229;-73
2024/01/03 05:03:21;;;;;;;8.40;1.55;;;10.10;99.90;;;;;;4975881;28;20204;-73
2024/01/03 05:05:49;;;;;;;9.02;1.42;;;10.20;99.90;;;;;;4983856;28;20689;-73
2024/01/03 05:08:17;;;;;;;20.33;1.63;;;10.20;99.90;;;;;;4975538;28;20288;-73
2024/01/03 05:10:45;;;;;;;9.85;1.35;;;10.10;99.90;;;;;;4975850;28;20209;-73
2024/01/03 05:13:13;;;;;;;8.20;1.38;;;10.10;99.90;;;;;;4990780;28;20239;-73
2024/01/03 05:15:42;;;;;;;6.47;1.52;;;10.10;99.90;;;;;;4975453;28;20283;-73
2024/01/03 05:18:10;;;;;;;10.23;1.77;;;10.10;99.90;;;;;;4975163;28;20236;-73
2024/01/03 05:20:39;;;;;;;12.98;1.75;;;10.20;99.90;;;;;;4983602;28;20232;-73
2024/01/03 05:23:07;;;;;;;13.05;1.88;;;10.20;99.90;;;;;;4974869;28;20205;-73
2024/01/03 05:25:35;;;;;;;14.77;2.25;;;10.20;99.90;;;;;;4975001;28;20209;-73
2024/01/03 05:28:02;;;;;;;8.07;1.13;;;10.20;99.90;;;;;;4974553;28;20228;-73
2024/01/03 05:30:31;;;;;;;12.35;1.35;;;10.20;99.90;;;;;;4973262;28;20267;-73
2024/01/03 05:33:00;;;;;;;10.43;1.65;;;10.20;99.90;;;;;;4974764;28;20224;-73
2024/01/03 05:35:28;;;;;;;9.25;1.73;;;10.20;99.90;;;;;;4977817;28;20671;-73
2024/01/03 05:37:56;;;;;;;14.00;1.80;;;10.20;99.90;;;;;;4979134;28;20269;-73
2024/01/03 05:40:24;;;;;;;9.98;1.83;;;10.10;99.90;;;;;;4985480;28;20308;-73
2024/01/03 05:42:52;;;;;;;11.20;1.90;;;10.10;99.90;;;;;;4986459;28;20267;-72
2024/01/03 05:45:20;;;;;;;15.13;1.70;;;10.10;99.90;;;;;;4975960;28;20248;-73
2024/01/03 05:47:48;;;;;;;16.08;2.10;;;10.10;99.90;;;;;;4982448;28;20263;-73
2024/01/03 05:50:17;;;;;;;8.98;1.60;;;10.00;99.90;;;;;;4982685;28;20251;-73
2024/01/03 05:52:45;;;;;;;13.38;1.88;;;10.00;99.90;;;;;;4974374;28;20232;-73
2024/01/03 05:55:13;;;;;;;14.30;1.70;;;10.00;99.90;;;;;;4982316;28;20729;-73
2024/01/03 05:57:41;;;;;;;7.47;1.70;;;10.00;99.90;;;;;;4974337;28;20229;-73
2024/01/03 06:00:10;;;;;;;5.85;1.20;;;10.00;99.90;;;;;;4982779;28;20290;-73
2024/01/03 06:02:38;;;;;;;6.03;1.50;;;10.10;99.90;;;;;;4993394;28;20664;-73
2024/01/03 06:05:08;;;;;;;9.50;2.10;;;10.10;99.90;;;;;;4985531;28;20212;-73
2024/01/03 06:07:37;;;;;;;8.18;2.35;;;10.10;99.90;;;;;;4972990;28;20255;-73
2024/01/03 06:10:05;;;;;;;8.65;1.48;;;10.10;99.90;;;;;;4983196;28;20328;-73
2024/01/03 06:12:34;;;;;;;9.10;1.77;;;10.10;99.90;;;;;;4981126;28;20240;-73
2024/01/03 06:15:02;;;;;;;9.73;1.77;;;10.10;99.90;;;;;;4973807;28;20320;-73
2024/01/03 06:17:30;;;;;;;9.82;1.67;;;10.10;99.90;;;;;;4974022;28;20208;-73
2024/01/03 06:19:58;;;;;;;13.63;1.50;;;10.10;99.90;;;;;;4980740;28;20303;-73
2024/01/03 06:22:26;;;;;;;16.13;1.67;;;10.00;99.90;;;;;;4985375;28;20237;-73
2024/01/03 06:24:55;;;;;;;13.65;1.80;;;10.10;99.90;;;;;;4979307;28;20256;-73
2024/01/03 06:27:23;;;;;;;12.88;1.90;;;10.20;99.90;;;;;;4981792;28;20698;-73
2024/01/03 06:29:51;;;;;;;10.10;1.42;;;10.20;99.90;;;;;;4981691;28;20938;-73
2024/01/03 06:32:18;;;;;;;9.38;1.40;;;10.20;99.90;;;;;;4983425;28;20290;-73
2024/01/03 06:34:47;;;;;;;10.07;1.25;;;10.20;99.90;;;;;;4987373;28;20231;-73
2024/01/03 06:37:14;;;;;;;7.60;1.63;;;10.20;99.90;;;;;;4973495;28;20204;-73
2024/01/03 06:39:42;;;;;;;7.45;1.10;;;10.10;99.90;;;;;;4973260;28;20672;-73
2024/01/03 06:42:11;;;;;;;3.28;1.17;;;10.10;99.90;;;;;;4973748;28;20283;-73
2024/01/03 06:44:39;;;;;;;8.15;1.30;;;10.20;99.90;;;;;;4980618;28;20263;-72
2024/01/03 06:47:07;;;;;;;9.30;1.48;;;10.20;99.90;;;;;;4973388;28;20379;-73
2024/01/03 06:49:35;;;;;;;8.43;1.20;;;10.20;99.90;;;;;;4968952;28;20667;-73
2024/01/03 06:52:03;;;;;;;8.25;1.13;;;10.20;99.90;;;;;;4985357;28;20744;-73
2024/01/03 06:54:31;;;;;;;7.95;1.70;;;10.10;99.90;;;;;;4972885;28;20299;-73
2024/01/03 06:56:59;;;;;;;6.47;1.50;;;10.10;99.90;;;;;;4973455;28;20277;-73
2024/01/03 06:59:28;;;;;;;6.38;1.17;;;10.00;99.90;;;;;;4972592;28;20259;-75
2024/01/03 07:01:57;;;;;;;9.63;1.50;;;10.00;99.90;;;;;;4981791;28;20239;-75
2024/01/03 07:04:25;;;;;;;6.60;1.60;;;9.90;99.90;;;;;;4973519;28;20239;-75
2024/01/03 07:06:53;;;;;;;7.50;1.20;;;9.90;99.90;;;;;;4973139;28;20216;-75
2024/01/03 07:09:21;;;;;;;8.82;1.73;;;9.80;99.90;;;;;;4973019;28;20213;-75
2024/01/03 07:11:49;;;;;;;7.30;1.33;;;9.90;99.90;;;;;;4973464;28;20224;-75
2024/01/03 07:14:17;;;;;;;8.77;1.95;;;9.90;99.90;;;;;;4972897;28;20225;-75
2024/01/03 07:16:46;;;;;;;9.98;1.95;;;9.90;99.90;;;;;;4974416;28;20209;-75
2024/01/03 07:19:18;;;;;;;11.10;1.65;;;9.80;99.90;;;;;;4972785;28;20667;-76
2024/01/03 07:21:46;;;;;;;11.20;2.08;;;9.80;99.90;;;;;;4973071;28;20761;-76
2024/01/03 07:24:14;;;;;;;13.80;2.20;;;9.80;99.90;;;;;;4981238;28;20199;-75
2024/01/03 07:26:42;;;;;;;8.68;1.42;;;9.80;99.90;;;;;;4973591;28;20212;-75
2024/01/03 07:29:10;;;;;;;9.68;1.60;;;9.80;99.90;;;;;;4969289;28;20217;-75
2024/01/03 07:31:38;;;;;;;12.23;1.65;;;9.80;99.90;;;;;;4988574;28;20758;-75
2024/01/03 07:34:07;;;;;;;11.20;1.63;;;9.80;99.90;;;;;;4972707;28;20636;-75
2024/01/03 07:36:35;;;;;;;15.98;1.90;;;9.80;99.90;;;;;;4984418;28;20577;-74
2024/01/03 07:39:03;;;;;;;7.95;1.60;;;9.80;99.90;;;;;;4976857;28;20307;-75
2024/01/03 07:41:35;;;;;;;10.27;1.45;;;9.90;99.90;;;;;;4972648;28;20263;-76
2024/01/03 07:44:04;;;;;;;10.30;1.30;;;9.90;99.90;;;;;;4972820;28;20299;-75
2024/01/03 07:46:32;;;;;;;14.00;1.85;;;9.90;99.90;;;;;;4975542;28;20295;-75
2024/01/03 07:49:00;;;;;;;8.65;1.52;;;9.90;99.90;;;;;;4980231;28;20236;-75
2024/01/03 07:51:29;;;;;;;7.88;1.65;;;10.00;99.90;;;;;;4976804;28;20726;-75
2024/01/03 07:53:57;;;;;;;7.20;1.33;;;10.00;99.90;;;;;;4976877;28;20247;-75
2024/01/03 07:56:25;;;;;;;7.05;1.27;;;10.00;99.90;;;;;;4986686;28;20208;-75
2024/01/03 07:58:53;;;;;;;6.70;1.30;;;10.10;99.90;;;;;;4995654;28;20270;-75
2024/01/03 08:01:21;;;;;;;4.40;1.15;;;10.10;99.90;;;;;;4978747;28;20256;-75
2024/01/03 08:03:49;;;;;;;6.53;1.17;;;10.20;99.90;;;;;;4981886;28;20287;-75
2024/01/03 08:06:20;;;;;;;7.65;1.10;;;10.20;99.90;;;;;;4980385;28;20204;-74
2024/01/03 08:08:49;;;;;;;6.97;1.23;;;10.20;99.90;;;;;;4982784;28;20204;-75
2024/01/03 08:11:17;;;;;;;2.65;1.05;;;10.20;99.90;;;;;;4976615;28;20232;-75
2024/01/03 08:13:45;;;;;;;7.97;1.00;;;10.30;99.90;;;;;;4976271;28;20252;-75
2024/01/03 08:16:13;;;;;;;8.77;1.17;;;10.30;99.90;;;;;;4984672;28;20701;-76
2024/01/03 08:18:43;;;;;;;1.77;0.43;;;10.30;99.90;;;;;;4979769;28;20234;-75
2024/01/03 08:21:11;;;;;;;6.82;0.95;;;10.30;99.90;;;;;;4980196;28;20224;-74
2024/01/03 08:23:39;;;;;;;3.35;0.60;;;10.30;99.90;;;;;;4976237;28;20623;-75
2024/01/03 08:26:10;;;;;;;6.22;1.00;;;10.30;99.90;;;;;;4976565;28;20589;-74
2024/01/03 08:28:40;;;;;;;4.63;0.75;;;10.20;99.90;;;;;;4979098;28;20298;-75
2024/01/03 08:31:08;;;;;;;3.45;0.82;;;10.30;99.90;;;;;;4980680;28;20235;-75
2024/01/03 08:33:36;;;;;;;4.45;1.05;;;10.20;99.90;;;;;;4976142;28;20667;-74
2024/01/03 08:36:05;;;;;;;3.30;0.60;;;10.20;99.90;;;;;;4976647;28;20220;-75
2024/01/03 08:38:33;;;;;;;4.03;0.70;;;10.20;99.90;;;;;;4983544;28;20244;-75
2024/01/03 08:41:01;;;;;;;3.40;0.57;;;10.20;99.90;;;;;;4976056;28;20310;-75
2024/01/03 08:43:30;;;;;;;3.17;0.60;;;10.20;99.90;;;;;;4976340;28;20236;-75
2024/01/03 08:45:58;;;;;;;3.55;0.43;;;10.20;99.90;;;;;;4976094;28;20502;-75
2024/01/03 08:48:26;;;;;;;3.20;0.80;;;10.20;99.90;;;;;;4975502;28;20291;-75
2024/01/03 08:50:54;;;;;;;4.07;0.70;;;10.20;99.90;;;;;;4975973;28;20228;-75
2024/01/03 08:53:22;;;;;;;4.03;0.47;;;10.30;99.90;;;;;;4975891;28;20299;-75
2024/01/03 08:55:50;;;;;;;3.30;0.80;;;10.30;99.90;;;;;;4975803;28;20229;-75
2024/01/03 08:58:18;;;;;;;5.30;0.77;;;10.40;99.90;;;;;;4983197;28;20211;-75
2024/01/03 09:00:47;;;;;;;4.60;0.73;;;10.40;99.90;;;;;;4983218;28;20224;-75
2024/01/03 09:03:15;;;;;;;5.57;0.80;;;10.50;99.90;;;;;;4975837;28;20264;-74
2024/01/03 09:05:43;;;;;;;6.43;1.02;;;10.50;99.90;;;;;;4968019;28;20227;-75
2024/01/03 09:08:11;;;;;;;2.50;0.60;;;10.60;99.90;;;;;;4975742;28;20212;-75
2024/01/03 09:10:39;;;;;;;2.30;0.50;;;10.60;99.90;;;;;;4975697;28;20208;-75
2024/01/03 09:13:08;;;;;;;3.45;0.50;;;10.70;99.90;;;;;;4982318;28;20303;-75
2024/01/03 09:15:36;;;;;;;2.90;0.85;;;10.80;99.90;;;;;;4976168;28;20228;-75
2024/01/03 09:18:05;;;;;;;3.53;0.60;;;10.90;99.90;;;;;;4975246;28;20219;-75
2024/01/03 09:20:34;;;;;;;2.72;0.60;;;11.10;99.90;;;;;;4977457;28;20248;-75
2024/01/03 09:23:01;;;;;;;1.83;0.50;;;11.20;99.90;;;;;;4980789;28;20213;-75
2024/01/03 09:25:29;;;;;;;3.97;0.50;;;11.30;99.90;;;;;;4975126;28;20679;-75
2024/01/03 09:27:57;;;;;;;3.35;0.60;;;11.40;99.90;;;;;;4974943;28;20240;-75
2024/01/03 09:30:28;;;;;;;4.18;0.52;;;11.50;99.90;;;;;;4974977;28;20212;-75
2024/01/03 09:32:56;;;;;;;2.38;0.60;;;11.60;99.90;;;;;;4974951;28;20235;-75
2024/01/03 09:35:25;;;;;;;1.05;0.45;;;11.60;99.90;;;;;;4975832;28;20768;-75
2024/01/03 09:37:53;;;;;;;4.65;0.77;;;11.70;99.90;;;;;;4981191;28;20215;-75
2024/01/03 09:40:21;;;;;;;2.05;0.70;;;11.80;99.90;;;;;;4975122;28;20689;-75
2024/01/03 09:42:49;;;;;;;3.10;0.60;;;11.90;99.90;;;;;;4982527;28;20377;-75
2024/01/03 09:45:18;;;;;;;3.22;1.08;;;11.90;99.90;;;;;;4974872;28;20236;-75
2024/01/03 09:47:46;;;;;;;3.08;0.90;;;11.90;99.90;;;;;;4966849;28;20279;-75
2024/01/03 09:50:16;;;;;;;3.83;0.75;;;12.00;99.90;;;;;;4974773;28;20204;-75
2024/01/03 09:52:45;;;;;;;3.53;0.73;;;12.00;99.90;;;;;;4975185;28;20224;-75
2024/01/03 09:55:13;;;;;;;7.10;0.75;;;12.10;99.90;;;;;;4974723;28;20744;-75
2024/01/03 09:57:41;;;;;;;6.25;1.00;;;12.30;99.90;;;;;;4977425;28;20582;-75
2024/01/03 10:00:09;;;;;;;4.47;0.90;;;12.30;99.90;;;;;;4979028;28;20216;-75
2024/01/03 10:02:37;;;;;;;4.70;0.82;;;12.40;99.90;;;;;;4977104;28;20310;-74
2024/01/03 10:05:06;;;;;;;1.85;0.70;;;12.60;99.90;;;;;;4988160;28;20255;-74
2024/01/03 10:07:34;;;;;;;8.00;0.80;;;12.80;99.90;;;;;;4982046;28;20725;-76
2024/01/03 10:10:06;;;;;;;6.43;1.27;;;13.00;99.90;;;;;;4979093;28;20251;-75
2024/01/03 10:12:34;;;;;;;5.47;0.90;;;13.20;99.90;;;;;;4983616;28;20260;-75
2024/01/03 10:15:15;;;;;;;4.05;1.02;;;13.30;99.90;;;;;;4974483;28;20224;-75
2024/01/03 10:17:43;;;;;;;8.13;1.60;;;13.40;99.90;;;;;;4973739;28;20263;-75
2024/01/03 10:20:24;;;;;;;2.42;0.70;;;13.50;99.90;;;;;;4973989;28;20211;-75
2024/01/03 10:23:04;;;;;;;2.88;0.80;;;13.50;99.90;;;;;;4967087;28;20311;-75
2024/01/03 10:25:34;;;;;;;4.32;1.10;;;13.50;99.90;;;;;;4974487;28;20204;-75
2024/01/03 10:28:02;;;;;;;4.45;1.05;;;13.60;99.90;;;;;;4979730;28;20204;-76
2024/01/03 10:30:30;;;;;;;5.72;1.13;;;13.70;99.90;;;;;;4990497;23;20333;-59
2024/01/03 10:32:59;;;;;;;4.95;1.27;;;13.60;99.90;;;;;;4973856;28;20879;-58
2024/01/03 10:35:28;;;;;;;8.27;1.40;;;13.40;99.90;;;;;;4973603;28;20275;-57
2024/01/03 10:37:56;;;;;;;3.40;1.42;;;13.30;99.90;;;;;;4973518;28;20221;-58
2024/01/03 10:40:26;;;;;;;6.53;0.90;;;13.20;99.90;;;;;;4973846;28;20283;-57
2024/01/03 10:42:55;;;;;;;5.28;0.90;;;13.30;99.90;;;;;;4973727;28;20251;-56
2024/01/03 10:45:23;;;;;;;4.72;1.00;;;13.30;99.90;;;;;;4973697;28;20240;-57
2024/01/03 10:47:51;;;;;;;6.53;0.75;;;13.20;99.90;;;;;;4973627;28;20876;-58
2024/01/03 10:50:19;;;;;;;7.05;1.17;;;13.20;99.90;;;;;;4973220;28;20255;-58
2024/01/03 10:52:48;;;;;;;3.40;1.00;;;13.10;99.90;;;;;;4973668;28;20251;-59
2024/01/03 10:55:18;;;;;;;6.75;1.33;;;13.00;99.90;;;;;;4973516;28;20260;-58
2024/01/03 10:57:54;;;;;;;6.13;1.08;;;12.90;99.90;;;;;;4973330;28;20648;-56
2024/01/03 11:00:26;;;;;;;5.78;1.05;;;12.80;99.90;;;;;;4973049;28;20319;-58
2024/01/03 11:02:56;;;;;;;6.88;1.23;;;12.70;99.90;;;;;;4966120;28;20216;-58
2024/01/03 11:05:42;;;;;;;6.95;1.25;;;12.70;99.90;;;;;;4973045;28;20573;-58
2024/01/03 11:08:10;;;;;;;6.47;1.13;;;12.70;99.90;;;;;;4972910;28;20223;-58
2024/01/03 11:10:48;;;;;;;5.25;1.00;;;12.70;99.90;;;;;;4973039;28;20227;-57
2024/01/03 11:13:34;;;;;;;3.78;0.95;;;12.80;99.90;;;;;;4972904;28;20633;-59
2024/01/03 11:16:05;;;;;;;4.97;1.38;;;12.80;99.90;;;;;;4973014;28;20224;-57
2024/01/03 11:18:55;;;;;;;8.27;0.93;;;12.90;99.90;;;;;;4972718;28;20363;-57
2024/01/03 11:21:42;;;;;;;11.63;1.20;;;12.80;99.90;;;;;;4972916;28;20232;-58
2024/01/03 11:24:56;;;;;;;10.30;1.63;;;12.90;99.90;;;;;;4972965;28;20240;-59
2024/01/03 11:27:24;;;;;;;5.50;1.13;;;13.00;99.90;;;;;;4972462;28;20232;-58
2024/01/03 11:29:54;;;;;;;5.93;1.42;;;13.10;99.90;;;;;;4972526;28;20303;-59
2024/01/03 11:32:35;;;;;;;7.55;1.35;;;13.20;99.90;;;;;;4973067;28;20219;-58
2024/01/03 11:35:08;;;;;;;8.95;1.35;;;13.20;99.90;;;;;;4972673;28;20216;-57
2024/01/03 11:37:41;;;;;;;5.70;1.10;;;13.10;99.90;;;;;;4972539;28;20208;-57
2024/01/03 11:40:19;;;;;;;5.55;1.30;;;13.00;99.90;;;;;;4973739;28;20584;-58
2024/01/03 11:42:47;;;;;;;6.80;0.93;;;12.90;99.90;;;;;;4972578;28;20208;-58
2024/01/03 11:45:17;;;;;;;8.52;1.08;;;12.90;99.90;;;;;;4971906;28;20657;-58
2024/01/03 11:47:47;;;;;;;8.25;1.27;;;13.00;99.90;;;;;;4971857;28;20215;-57
2024/01/03 11:50:16;;;;;;;6.32;1.75;;;12.90;99.90;;;;;;4972397;28;20256;-57
2024/01/03 11:52:45;;;;;;;8.82;1.38;;;12.90;99.90;;;;;;4972476;28;20307;-59
2024/01/03 11:55:16;;;;;;;3.85;0.90;;;13.00;99.90;;;;;;4972499;28;20566;-56
2024/01/03 11:57:44;;;;;;;8.13;1.50;;;13.20;99.90;;;;;;4972546;28;20597;-56
2024/01/03 12:00:13;;;;;;;5.70;1.20;;;13.30;99.90;;;;;;4972395;28;20260;-56
2024/01/03 12:02:53;;;;;;;5.20;0.85;;;13.30;99.90;;;;;;4972627;28;20213;-55
2024/01/03 12:05:21;;;;;;;3.67;0.98;;;13.50;99.90;;;;;;4972566;28;20208;-56
2024/01/03 12:07:50;;;;;;;6.22;1.48;;;13.40;99.90;;;;;;4972515;28;20215;-56
2024/01/03 12:10:20;;;;;;;5.22;1.20;;;13.40;99.90;;;;;;4972342;28;20279;-56
2024/01/03 12:12:51;;;;;;;5.88;1.10;;;13.40;99.90;;;;;;4972649;28;20683;-55
2024/01/03 12:15:24;;;;;;;8.13;1.17;;;13.30;99.90;;;;;;4972451;28;20297;-54
2024/01/03 12:18:11;;;;;;;6.55;1.50;;;13.20;99.90;;;;;;4972287;28;20717;-57
2024/01/03 12:20:39;;;;;;;5.82;1.20;;;13.20;99.90;;;;;;4972356;28;20229;-57
2024/01/03 12:23:09;;;;;;;16.85;2.00;;;13.20;99.90;;;;;;4972585;28;20240;-59
2024/01/03 12:25:38;;;;;;;9.75;1.77;;;13.10;99.90;;;;;;4972272;28;20212;-58
2024/01/03 12:28:06;;;;;;;5.80;1.25;;;13.00;99.90;;;;;;4972177;28;20574;-59
2024/01/03 12:30:34;;;;;;;13.00;1.80;;;13.00;99.90;;;;;;4970668;28;20318;-59
2024/01/03 12:33:11;;;;;;;5.10;1.00;;;13.00;99.90;;;;;;4973073;28;20208;-59
2024/01/03 12:35:42;;;;;;;9.90;1.30;;;13.10;99.90;;;;;;4975649;28;20263;-59
2024/01/03 12:38:10;;;;;;;9.48;1.20;;;13.10;99.90;;;;;;4975205;28;20271;-59
2024/01/03 12:40:38;;;;;;;6.78;1.30;;;13.10;99.90;;;;;;4975256;28;20243;-60
2024/01/03 12:43:06;;;;;;;8.57;1.60;;;13.20;99.90;;;;;;4975851;28;20205;-59
2024/01/03 12:45:34;;;;;;;7.53;1.30;;;13.20;99.90;;;;;;4975675;28;20208;-60
2024/01/03 12:48:02;;;;;;;4.45;0.88;;;13.30;99.90;;;;;;4974197;28;20396;-59
2024/01/03 12:50:30;;;;;;;10.57;1.33;;;13.40;99.90;;;;;;4973996;28;20236;-59
2024/01/03 12:52:59;;;;;;;6.93;1.50;;;13.30;99.90;;;;;;4975428;28;20669;-60
2024/01/03 12:55:27;;;;;;;7.78;1.73;;;13.20;99.90;;;;;;4975397;28;20224;-60